createdAt,value
2023-01-19T00:01:48.785Z,9.32
2023-01-19T00:04:16.039Z,9.40
2023-01-19T00:06:43.178Z,14.15
2023-01-19T00:09:10.524Z,15.52
2023-01-19T00:11:43.635Z,11.95
2023-01-19T00:14:11.906Z,14.70
2023-01-19T00:16:42.385Z,9.98
2023-01-19T00:19:09.767Z,7.60
2023-01-19T00:21:37.098Z,12.77
2023-01-19T00:24:04.481Z,8.98
2023-01-19T00:26:33.683Z,2.72
2023-01-19T00:29:01.004Z,5.43
2023-01-19T00:31:29.933Z,3.05
2023-01-19T00:33:57.262Z,3.63
2023-01-19T00:36:27.964Z,7.13
2023-01-19T00:38:56.261Z,5.25
2023-01-19T00:41:44.779Z,4.88
2023-01-19T00:44:12.637Z,7.03
2023-01-19T00:46:40.781Z,3.10
2023-01-19T00:49:07.942Z,2.95
2023-01-19T00:51:37.569Z,0.95
2023-01-19T00:54:05.081Z,0.50
2023-01-19T00:56:32.913Z,0.75
2023-01-19T00:59:00.690Z,2.65
2023-01-19T01:01:45.002Z,5.40
2023-01-19T01:04:14.193Z,2.33
2023-01-19T01:06:41.422Z,3.45
2023-01-19T01:09:12.121Z,2.97
2023-01-19T01:11:39.999Z,0.57
2023-01-19T01:14:07.348Z,1.27
2023-01-19T01:16:35.621Z,2.22
2023-01-19T01:19:03.872Z,0.68
2023-01-19T01:21:34.615Z,3.08
2023-01-19T01:24:02.174Z,1.10
2023-01-19T01:26:31.739Z,2.83
2023-01-19T01:28:59.119Z,3.40
2023-01-19T01:31:32.292Z,2.58
2023-01-19T01:33:59.408Z,2.47
2023-01-19T01:36:29.176Z,2.20
2023-01-19T01:38:56.611Z,1.42
2023-01-19T01:41:25.467Z,3.33
2023-01-19T01:43:58.277Z,3.80
2023-01-19T01:46:27.143Z,0.73
2023-01-19T01:49:11.410Z,2.58
2023-01-19T01:51:39.095Z,2.55
2023-01-19T01:54:18.839Z,1.45
2023-01-19T01:56:49.259Z,9.25
2023-01-19T01:59:29.414Z,2.73
2023-01-19T02:02:16.299Z,1.58
2023-01-19T02:05:00.580Z,15.75
2023-01-19T02:07:57.065Z,1.45
2023-01-19T02:10:44.344Z,5.47
2023-01-19T02:13:22.609Z,1.95
2023-01-19T02:15:52.228Z,1.95
2023-01-19T02:18:20.750Z,2.40
2023-01-19T02:21:01.944Z,2.72
2023-01-19T02:23:45.771Z,5.20
2023-01-19T02:26:15.371Z,0.95
2023-01-19T02:28:44.592Z,3.13
2023-01-19T02:31:11.758Z,1.55
2023-01-19T02:33:39.158Z,1.88
2023-01-19T02:36:08.183Z,3.67
2023-01-19T02:38:35.896Z,1.15
2023-01-19T02:41:03.917Z,2.97
2023-01-19T02:43:32.114Z,2.83
2023-01-19T02:45:59.692Z,3.30
2023-01-19T02:48:27.266Z,2.53
2023-01-19T02:50:59.487Z,0.80
2023-01-19T02:53:37.420Z,0.65
2023-01-19T02:56:11.060Z,6.85
2023-01-19T02:58:44.869Z,2.85
2023-01-19T03:01:21.164Z,0.75
2023-01-19T03:03:48.680Z,2.75
2023-01-19T03:06:24.999Z,0.45
2023-01-19T03:08:55.327Z,1.25
2023-01-19T03:11:24.321Z,3.17
2023-01-19T03:14:18.511Z,5.38
2023-01-19T03:16:55.185Z,1.85
2023-01-19T03:19:34.892Z,2.03
2023-01-19T03:22:10.198Z,1.17
2023-01-19T03:24:40.082Z,0.20
2023-01-19T03:27:11.352Z,2.08
2023-01-19T03:29:39.366Z,5.07
2023-01-19T03:32:17.051Z,2.72
2023-01-19T03:34:45.272Z,3.20
2023-01-19T03:37:14.531Z,3.05
2023-01-19T03:39:42.920Z,7.40
2023-01-19T03:42:13.778Z,1.60
2023-01-19T03:44:44.797Z,5.65
2023-01-19T03:47:12.749Z,2.88
2023-01-19T03:49:42.389Z,4.38
2023-01-19T03:52:09.926Z,1.90
2023-01-19T03:54:37.043Z,2.55
2023-01-19T03:57:04.513Z,2.17
2023-01-19T03:59:31.671Z,6.55
2023-01-19T04:01:59.352Z,7.03
2023-01-19T04:04:27.754Z,1.30
2023-01-19T04:06:55.206Z,4.38
2023-01-19T04:09:22.544Z,5.15
2023-01-19T04:11:49.888Z,1.73
2023-01-19T04:14:17.015Z,2.67
2023-01-19T04:16:44.258Z,9.05
2023-01-19T04:19:13.563Z,5.20
2023-01-19T04:21:40.949Z,0.88
2023-01-19T04:24:08.551Z,2.75
2023-01-19T04:26:35.656Z,3.80
2023-01-19T04:29:04.415Z,8.40
2023-01-19T04:31:33.032Z,6.80
2023-01-19T04:34:01.427Z,7.95
2023-01-19T04:36:31.356Z,7.78
2023-01-19T04:38:59.771Z,4.68
2023-01-19T04:41:27.091Z,10.05
2023-01-19T04:43:54.521Z,11.13
2023-01-19T04:46:21.870Z,7.32
2023-01-19T04:48:50.985Z,7.47
2023-01-19T04:51:18.630Z,11.93
2023-01-19T04:53:47.006Z,3.78
2023-01-19T04:56:14.346Z,9.48
2023-01-19T04:58:41.925Z,5.90
2023-01-19T05:01:09.853Z,13.20
2023-01-19T05:03:37.335Z,10.50
2023-01-19T05:06:05.931Z,12.43
2023-01-19T05:08:33.301Z,12.38
2023-01-19T05:11:00.683Z,9.10
2023-01-19T05:13:28.099Z,2.72
2023-01-19T05:15:55.889Z,8.95
2023-01-19T05:18:23.016Z,14.13
2023-01-19T05:20:51.517Z,8.45
2023-01-19T05:23:18.662Z,8.65
2023-01-19T05:25:47.461Z,8.25
2023-01-19T05:28:15.312Z,9.32
2023-01-19T05:30:44.838Z,4.80
2023-01-19T05:33:12.214Z,5.68
2023-01-19T05:35:39.563Z,7.60
2023-01-19T05:38:07.137Z,13.35
2023-01-19T05:40:34.491Z,7.40
2023-01-19T05:43:05.092Z,11.35
2023-01-19T05:45:32.844Z,13.30
2023-01-19T05:48:00.345Z,14.57
2023-01-19T05:50:27.474Z,14.73
2023-01-19T05:52:54.629Z,7.10
2023-01-19T05:55:22.537Z,10.80
2023-01-19T05:57:50.027Z,14.32
2023-01-19T06:00:25.060Z,20.42
2023-01-19T06:02:52.278Z,10.20
2023-01-19T06:05:21.811Z,9.80
2023-01-19T06:07:50.499Z,10.75
2023-01-19T06:10:17.927Z,12.73
2023-01-19T06:12:45.978Z,23.20
2023-01-19T06:15:14.185Z,10.25
2023-01-19T06:17:41.353Z,17.15
2023-01-19T06:20:09.341Z,15.18
2023-01-19T06:22:37.982Z,11.57
2023-01-19T06:25:05.481Z,23.38
2023-01-19T06:27:32.800Z,38.80
2023-01-19T06:30:00.156Z,22.33
2023-01-19T06:32:27.527Z,28.20
2023-01-19T06:34:54.800Z,26.98
2023-01-19T06:37:28.644Z,22.73
2023-01-19T06:39:55.938Z,36.03
2023-01-19T06:42:24.326Z,23.00
2023-01-19T06:44:51.475Z,11.73
2023-01-19T06:47:18.768Z,27.13
2023-01-19T06:49:45.956Z,26.05
2023-01-19T06:52:18.071Z,12.90
2023-01-19T06:54:46.235Z,15.52
2023-01-19T06:57:14.487Z,3.88
2023-01-19T06:59:43.022Z,7.55
2023-01-19T07:02:27.406Z,18.90
2023-01-19T07:04:55.550Z,18.38
2023-01-19T07:07:22.764Z,16.83
2023-01-19T07:09:50.086Z,23.90
2023-01-19T07:12:21.201Z,14.68
2023-01-19T07:14:49.511Z,22.55
2023-01-19T07:17:17.139Z,7.75
2023-01-19T07:19:44.443Z,15.50
2023-01-19T07:22:11.879Z,13.60
2023-01-19T07:24:42.149Z,17.42
2023-01-19T07:27:11.456Z,11.07
2023-01-19T07:29:39.811Z,17.70
2023-01-19T07:32:07.751Z,19.40
2023-01-19T07:34:36.500Z,16.75
2023-01-19T07:37:04.451Z,10.07
2023-01-19T07:39:32.638Z,14.52
2023-01-19T07:42:00.370Z,19.25
2023-01-19T07:44:27.740Z,18.63
2023-01-19T07:46:54.968Z,10.00
2023-01-19T07:49:22.143Z,10.20
2023-01-19T07:51:49.518Z,11.65
2023-01-19T07:54:18.929Z,10.48
2023-01-19T07:56:47.253Z,14.60
2023-01-19T07:59:20.375Z,4.07
2023-01-19T08:01:48.170Z,16.35
2023-01-19T08:04:15.759Z,11.38
2023-01-19T08:06:45.630Z,21.20
2023-01-19T08:09:13.009Z,10.63
2023-01-19T08:11:40.383Z,14.90
2023-01-19T08:14:08.118Z,32.70
2023-01-19T08:16:36.985Z,10.57
2023-01-19T08:19:04.667Z,8.50
2023-01-19T08:21:35.782Z,19.13
2023-01-19T08:24:03.207Z,10.35
2023-01-19T08:26:32.255Z,16.38
2023-01-19T08:29:00.559Z,19.85
2023-01-19T08:31:27.886Z,14.13
2023-01-19T08:33:57.240Z,12.73
2023-01-19T08:36:32.316Z,19.15
2023-01-19T08:39:01.561Z,19.58
2023-01-19T08:41:29.785Z,15.98
2023-01-19T08:43:56.921Z,14.27
2023-01-19T08:46:24.229Z,13.80
2023-01-19T08:48:51.553Z,15.90
2023-01-19T08:51:18.979Z,22.10
2023-01-19T08:53:47.512Z,8.60
2023-01-19T08:56:15.040Z,4.75
2023-01-19T08:58:44.559Z,19.25
2023-01-19T09:01:17.175Z,13.20
2023-01-19T09:03:45.101Z,13.07
2023-01-19T09:06:14.487Z,18.50
2023-01-19T09:08:41.752Z,18.40
2023-01-19T09:11:13.380Z,17.45
2023-01-19T09:13:41.334Z,2.63
2023-01-19T09:16:16.002Z,21.65
2023-01-19T09:18:45.105Z,13.25
2023-01-19T09:21:15.181Z,20.10
2023-01-19T09:23:42.536Z,13.95
2023-01-19T09:26:10.642Z,15.00
2023-01-19T09:28:44.434Z,12.63
2023-01-19T09:31:12.318Z,13.50
2023-01-19T09:33:41.829Z,12.80
2023-01-19T09:36:09.206Z,12.52
2023-01-19T09:38:39.858Z,11.60
2023-01-19T09:41:18.954Z,8.70
2023-01-19T09:44:06.572Z,17.90
2023-01-19T09:46:41.701Z,11.82
2023-01-19T09:49:21.590Z,3.92
2023-01-19T09:51:50.164Z,12.90
2023-01-19T09:54:17.462Z,1.73
2023-01-19T09:56:52.660Z,10.43
2023-01-19T09:59:23.283Z,5.30
2023-01-19T10:01:51.801Z,3.83
2023-01-19T10:04:31.072Z,9.07
2023-01-19T10:07:20.589Z,13.02
2023-01-19T10:09:59.922Z,11.50
2023-01-19T10:12:31.279Z,3.95
2023-01-19T10:15:18.967Z,9.73
2023-01-19T10:17:52.194Z,8.88
2023-01-19T10:20:26.724Z,6.97
2023-01-19T10:22:54.200Z,7.50
2023-01-19T10:25:25.678Z,6.72
2023-01-19T10:30:23.807Z,10.27
2023-01-19T10:32:52.409Z,8.80
2023-01-19T10:35:25.079Z,3.17
2023-01-19T10:37:53.606Z,6.35
2023-01-19T10:40:20.773Z,15.32
2023-01-19T10:42:47.902Z,10.10
2023-01-19T10:45:31.619Z,13.07
2023-01-19T10:48:00.588Z,2.92
2023-01-19T10:50:32.000Z,8.07
2023-01-19T10:55:38.984Z,4.13
2023-01-19T10:58:07.577Z,9.48
2023-01-19T11:00:39.233Z,5.05
2023-01-19T11:03:23.190Z,6.80
2023-01-19T11:06:15.511Z,4.00
2023-01-19T11:08:43.870Z,6.63
2023-01-19T11:11:12.556Z,4.00
2023-01-19T11:13:44.324Z,3.35
2023-01-19T11:16:24.506Z,2.88
2023-01-19T11:18:56.257Z,6.93
2023-01-19T11:21:27.826Z,12.52
2023-01-19T11:23:57.817Z,2.40
2023-01-19T11:26:28.699Z,7.30
2023-01-19T11:28:57.282Z,7.32
2023-01-19T11:31:31.570Z,1.85
2023-01-19T11:34:03.075Z,10.50
2023-01-19T11:36:36.546Z,7.20
2023-01-19T11:39:25.076Z,6.43
2023-01-19T11:41:54.859Z,5.57
2023-01-19T11:44:24.274Z,3.95
2023-01-19T11:46:58.186Z,1.67
2023-01-19T11:49:38.460Z,7.53
2023-01-19T11:52:23.598Z,6.55
2023-01-19T11:55:15.036Z,5.85
2023-01-19T11:57:47.178Z,5.05
2023-01-19T12:00:24.698Z,7.43
2023-01-19T12:02:55.184Z,4.05
2023-01-19T12:05:23.385Z,2.58
2023-01-19T12:07:51.689Z,4.18
2023-01-19T12:10:22.998Z,4.70
2023-01-19T12:15:24.191Z,5.53
2023-01-19T12:17:54.562Z,2.72
2023-01-19T12:20:24.588Z,6.20
2023-01-19T12:23:05.400Z,6.43
2023-01-19T12:25:47.831Z,9.18
2023-01-19T12:28:17.832Z,12.13
2023-01-19T12:30:46.123Z,2.72
2023-01-19T12:33:23.592Z,1.95
2023-01-19T12:35:57.731Z,3.03
2023-01-19T12:38:34.377Z,1.77
2023-01-19T12:41:18.220Z,1.13
2023-01-19T12:43:45.351Z,4.53
2023-01-19T12:46:24.748Z,0.98
2023-01-19T12:48:52.171Z,6.28
2023-01-19T12:51:26.980Z,1.00
2023-01-19T12:53:59.692Z,2.60
2023-01-19T12:56:37.792Z,7.47
2023-01-19T12:59:06.486Z,7.65
2023-01-19T13:01:33.892Z,2.05
2023-01-19T13:04:06.749Z,4.18
2023-01-19T13:06:50.619Z,8.13
2023-01-19T13:09:33.960Z,3.85
2023-01-19T13:12:20.290Z,9.77
2023-01-19T13:14:50.695Z,2.72
2023-01-19T13:17:36.613Z,3.17
2023-01-19T13:20:15.754Z,7.22
2023-01-19T13:22:53.176Z,3.67
2023-01-19T13:25:38.373Z,6.93
2023-01-19T13:28:09.364Z,4.18
2023-01-19T13:30:37.267Z,6.43
2023-01-19T13:33:13.553Z,6.82
2023-01-19T13:35:40.694Z,2.83
2023-01-19T13:38:13.684Z,9.35
2023-01-19T13:40:40.969Z,7.00
2023-01-19T13:43:21.465Z,6.75
2023-01-19T13:45:54.814Z,4.05
2023-01-19T13:48:23.471Z,3.33
2023-01-19T13:51:01.538Z,6.40
2023-01-19T13:53:30.386Z,4.63
2023-01-19T13:56:20.640Z,4.50
2023-01-19T13:59:10.339Z,5.90
2023-01-19T14:01:38.711Z,3.42
2023-01-19T14:04:06.434Z,9.25
2023-01-19T14:06:37.269Z,3.53
2023-01-19T14:09:19.561Z,3.67
2023-01-19T14:11:48.322Z,6.43
2023-01-19T14:14:25.429Z,8.15
2023-01-19T14:16:55.043Z,1.92
2023-01-19T14:19:23.566Z,6.32
2023-01-19T14:22:06.392Z,2.42
2023-01-19T14:24:35.811Z,3.03
2023-01-19T14:27:20.433Z,5.07
2023-01-19T14:29:54.984Z,0.85
2023-01-19T14:32:24.369Z,2.78
2023-01-19T14:34:54.123Z,3.10
2023-01-19T14:37:26.282Z,5.95
2023-01-19T14:39:56.514Z,6.72
2023-01-19T14:42:32.234Z,3.80
2023-01-19T14:45:01.183Z,2.00
2023-01-19T14:47:30.482Z,1.92
2023-01-19T14:50:00.776Z,4.20
2023-01-19T14:52:33.815Z,5.75
2023-01-19T14:55:03.035Z,3.40
2023-01-19T14:57:36.854Z,1.98
2023-01-19T15:00:27.175Z,5.40
2023-01-19T15:02:54.459Z,4.65
2023-01-19T15:05:23.679Z,2.33
2023-01-19T15:07:52.084Z,3.15
2023-01-19T15:10:23.347Z,8.20
2023-01-19T15:12:51.378Z,2.60
2023-01-19T15:15:22.146Z,4.57
2023-01-19T15:17:49.883Z,5.18
2023-01-19T15:20:18.606Z,3.65
2023-01-19T15:22:46.347Z,4.13
2023-01-19T15:25:14.771Z,6.03
2023-01-19T15:27:42.023Z,4.72
2023-01-19T15:30:24.267Z,2.63
2023-01-19T15:32:53.817Z,4.05
2023-01-19T15:35:22.156Z,5.15
2023-01-19T15:37:59.759Z,6.75
2023-01-19T15:40:27.100Z,2.47
2023-01-19T15:42:57.486Z,2.83
2023-01-19T15:45:43.128Z,0.75
2023-01-19T15:48:26.712Z,6.03
2023-01-19T15:50:54.052Z,5.20
2023-01-19T15:53:24.170Z,4.28
2023-01-19T15:55:52.657Z,6.90
2023-01-19T15:58:26.646Z,4.35
2023-01-19T16:00:59.845Z,7.28
2023-01-19T16:03:32.883Z,9.40
2023-01-19T16:06:04.000Z,3.03
2023-01-19T16:08:31.293Z,7.13
2023-01-19T16:10:58.464Z,2.55
2023-01-19T16:13:29.986Z,7.18
2023-01-19T16:16:01.801Z,5.55
2023-01-19T16:18:29.132Z,7.53
2023-01-19T16:21:03.459Z,8.45
2023-01-19T16:23:30.561Z,5.63
2023-01-19T16:26:09.182Z,3.63
2023-01-19T16:28:38.662Z,4.88
2023-01-19T16:31:07.229Z,7.68
2023-01-19T16:33:34.446Z,9.35
2023-01-19T16:36:17.382Z,7.90
2023-01-19T16:38:45.717Z,8.45
2023-01-19T16:41:12.918Z,8.55
2023-01-19T16:43:40.306Z,16.88
2023-01-19T16:46:21.236Z,10.18
2023-01-19T16:48:48.780Z,9.43
2023-01-19T16:51:16.089Z,6.93
2023-01-19T16:53:45.511Z,7.65
2023-01-19T16:56:13.837Z,11.07
2023-01-19T16:58:44.488Z,6.65
2023-01-19T17:01:13.454Z,5.70
2023-01-19T17:03:41.331Z,4.15
2023-01-19T17:06:18.042Z,7.30
2023-01-19T17:08:45.919Z,10.07
2023-01-19T17:11:23.371Z,8.48
2023-01-19T17:13:54.159Z,3.83
2023-01-19T17:16:21.501Z,12.23
2023-01-19T17:18:50.944Z,5.93
2023-01-19T17:21:20.077Z,5.72
2023-01-19T17:23:48.768Z,3.47
2023-01-19T17:26:17.319Z,14.65
2023-01-19T17:28:45.933Z,4.07
2023-01-19T17:31:21.653Z,1.38
2023-01-19T17:33:53.442Z,4.05
2023-01-19T17:36:25.440Z,2.63
2023-01-19T17:38:54.195Z,0.50
2023-01-19T17:41:30.072Z,14.90
2023-01-19T17:43:58.122Z,5.30
2023-01-19T17:46:30.735Z,8.85
2023-01-19T17:49:02.202Z,11.90
2023-01-19T17:53:56.527Z,5.25
2023-01-19T17:56:28.431Z,8.30
2023-01-19T17:58:57.939Z,4.53
2023-01-19T18:01:32.114Z,5.13
2023-01-19T18:04:02.700Z,4.85
2023-01-19T18:06:30.976Z,3.60
2023-01-19T18:08:59.418Z,2.08
2023-01-19T18:11:27.825Z,2.65
2023-01-19T18:13:55.093Z,5.10
2023-01-19T18:16:26.070Z,2.80
2023-01-19T18:18:54.285Z,2.95
2023-01-19T18:21:22.543Z,3.97
2023-01-19T18:23:50.535Z,8.05
2023-01-19T18:26:23.633Z,6.43
2023-01-19T18:28:51.061Z,4.28
2023-01-19T18:31:19.661Z,8.85
2023-01-19T18:33:47.766Z,14.98
2023-01-19T18:36:16.745Z,9.45
2023-01-19T18:38:46.800Z,6.20
2023-01-19T18:41:15.265Z,7.20
2023-01-19T18:43:42.688Z,12.25
2023-01-19T18:46:11.528Z,14.13
2023-01-19T18:48:44.903Z,21.30
2023-01-19T18:51:13.607Z,28.77
2023-01-19T18:53:42.670Z,26.02
2023-01-19T18:56:12.243Z,28.88
2023-01-19T18:58:40.810Z,30.50
2023-01-19T19:01:25.066Z,32.47
2023-01-19T19:03:53.106Z,30.88
2023-01-19T19:06:31.471Z,33.22
2023-01-19T19:08:59.459Z,26.63
2023-01-19T19:11:27.682Z,39.17
2023-01-19T19:14:03.955Z,41.40
2023-01-19T19:16:39.524Z,36.72
2023-01-19T19:19:20.381Z,38.42
2023-01-19T19:21:48.993Z,32.15
2023-01-19T19:24:17.590Z,43.67
2023-01-19T19:26:46.951Z,37.03
2023-01-19T19:29:14.283Z,31.50
2023-01-19T19:31:42.858Z,37.60
2023-01-19T19:34:12.346Z,31.05
2023-01-19T19:36:40.077Z,20.08
2023-01-19T19:39:07.377Z,29.73
2023-01-19T19:41:38.329Z,14.05
2023-01-19T19:44:05.848Z,17.00
2023-01-19T19:46:33.245Z,10.02
2023-01-19T19:49:00.651Z,14.70
2023-01-19T19:51:28.595Z,7.70
2023-01-19T19:53:57.454Z,1.63
2023-01-19T19:56:31.711Z,4.07
2023-01-19T19:59:01.165Z,2.03
2023-01-19T20:01:33.560Z,1.25
2023-01-19T20:04:07.001Z,0.65
2023-01-19T20:06:38.847Z,0.40
2023-01-19T20:09:07.584Z,1.30
2023-01-19T20:11:36.213Z,0.85
2023-01-19T20:14:09.459Z,0.45
2023-01-19T20:16:37.141Z,1.45
2023-01-19T20:19:04.604Z,1.40
2023-01-19T20:21:33.054Z,0.88
2023-01-19T20:24:07.408Z,2.22
2023-01-19T20:26:37.507Z,2.33
2023-01-19T20:29:10.321Z,0.50
2023-01-19T20:31:39.540Z,2.47
2023-01-19T20:34:08.263Z,1.80
2023-01-19T20:36:37.711Z,3.53
2023-01-19T20:39:10.135Z,2.40
2023-01-19T20:41:51.362Z,3.78
2023-01-19T20:44:23.133Z,5.05
2023-01-19T20:46:54.257Z,4.90
2023-01-19T20:49:21.831Z,10.95
2023-01-19T20:51:52.077Z,4.13
2023-01-19T20:54:20.331Z,3.53
2023-01-19T20:56:51.835Z,2.65
2023-01-19T21:01:50.190Z,2.90
2023-01-19T21:04:26.548Z,2.33
2023-01-19T21:06:53.736Z,2.28
2023-01-19T21:09:22.736Z,4.68
2023-01-19T21:11:50.134Z,4.75
2023-01-19T21:14:19.345Z,6.18
2023-01-19T21:16:47.644Z,4.15
2023-01-19T21:19:15.077Z,4.45
2023-01-19T21:21:42.294Z,5.50
2023-01-19T21:24:11.643Z,6.20
2023-01-19T21:26:39.008Z,6.18
2023-01-19T21:29:07.312Z,7.43
2023-01-19T21:31:34.546Z,5.65
2023-01-19T21:34:02.076Z,6.75
2023-01-19T21:36:29.251Z,7.70
2023-01-19T21:39:01.560Z,7.25
2023-01-19T21:41:29.990Z,11.88
2023-01-19T21:43:58.446Z,16.80
2023-01-19T21:46:32.728Z,5.45
2023-01-19T21:49:02.952Z,6.65
2023-01-19T21:51:33.600Z,6.05
2023-01-19T21:54:02.630Z,6.53
2023-01-19T21:56:31.128Z,8.85
2023-01-19T21:59:04.194Z,5.53
2023-01-19T22:01:36.030Z,7.88
2023-01-19T22:04:07.162Z,6.30
2023-01-19T22:06:34.461Z,7.65
2023-01-19T22:09:07.905Z,5.30
2023-01-19T22:11:40.304Z,9.70
2023-01-19T22:14:13.388Z,6.53
2023-01-19T22:16:42.738Z,8.07
2023-01-19T22:19:12.607Z,2.97
2023-01-19T22:21:40.372Z,5.03
2023-01-19T22:24:07.838Z,12.57
2023-01-19T22:26:37.685Z,4.28
2023-01-19T22:29:11.856Z,3.60
2023-01-19T22:31:43.455Z,3.20
2023-01-19T22:34:17.805Z,6.60
2023-01-19T22:36:47.379Z,7.10
2023-01-19T22:39:14.636Z,8.93
2023-01-19T22:41:47.566Z,12.95
2023-01-19T22:44:17.963Z,6.47
2023-01-19T22:46:46.773Z,16.77
2023-01-19T22:49:21.094Z,15.60
2023-01-19T22:51:48.338Z,18.15
2023-01-19T22:54:27.139Z,18.60
2023-01-19T22:57:00.528Z,19.27
2023-01-19T22:59:28.852Z,17.63
2023-01-19T23:02:03.035Z,21.95
2023-01-19T23:04:31.522Z,12.30
2023-01-19T23:06:58.960Z,25.17
2023-01-19T23:09:27.118Z,23.85
2023-01-19T23:11:55.539Z,24.80
2023-01-19T23:14:36.171Z,10.10
2023-01-19T23:17:09.437Z,17.30
2023-01-19T23:19:36.567Z,29.67
2023-01-19T23:22:05.850Z,18.63
2023-01-19T23:24:33.203Z,29.55
2023-01-19T23:27:02.272Z,26.92
2023-01-19T23:29:29.395Z,20.00
2023-01-19T23:31:56.979Z,20.45
2023-01-19T23:34:24.101Z,31.52
2023-01-19T23:36:56.880Z,26.98
2023-01-19T23:39:25.280Z,28.92
2023-01-19T23:41:55.846Z,26.42
2023-01-19T23:44:23.075Z,16.73
2023-01-19T23:46:51.466Z,30.70
2023-01-19T23:49:20.969Z,27.70
2023-01-19T23:51:48.193Z,16.67
2023-01-19T23:54:15.537Z,26.80
2023-01-19T23:56:42.855Z,23.55
2023-01-19T23:59:14.883Z,23.90
